sensor_id;sensor_type;location;lat;lon;timestamp;pressure;altitude;pressure_sealevel;temperature;humidity
41234;BME280;26968;42.686;23.352;2022-08-21T00:01:56;94661.44;;;20.45;76.80
41234;BME280;26968;42.686;23.352;2022-08-21T00:04:21;94686.47;;;20.46;78.72
41234;BME280;26968;42.686;23.352;2022-08-21T00:06:47;94607.81;;;19.93;77.45
41234;BME280;26968;42.686;23.352;2022-08-21T00:09:13;94663.09;;;20.34;78.10
41234;BME280;26968;42.686;23.352;2022-08-21T00:11:39;94661.19;;;20.34;77.92
41234;BME280;26968;42.686;23.352;2022-08-21T00:14:07;94629.88;;;20.14;77.80
41234;BME280;26968;42.686;23.352;2022-08-21T00:16:33;94614.50;;;19.99;77.50
41234;BME280;26968;42.686;23.352;2022-08-21T00:18:58;94652.25;;;19.87;79.60
41234;BME280;26968;42.686;23.352;2022-08-21T00:21:24;94698.59;;;20.24;79.04
41234;BME280;26968;42.686;23.352;2022-08-21T00:23:50;94572.97;;;19.53;79.54
41234;BME280;26968;42.686;23.352;2022-08-21T00:26:16;94639.16;;;20.01;79.11
41234;BME280;26968;42.686;23.352;2022-08-21T00:28:42;94704.47;;;20.41;79.75
41234;BME280;26968;42.686;23.352;2022-08-21T00:31:07;94696.63;;;20.52;79.81
41234;BME280;26968;42.686;23.352;2022-08-21T00:33:33;94626.94;;;20.19;80.02
41234;BME280;26968;42.686;23.352;2022-08-21T00:36:00;94615.47;;;20.22;78.97
41234;BME280;26968;42.686;23.352;2022-08-21T00:38:25;94703.34;;;20.74;78.71
41234;BME280;26968;42.686;23.352;2022-08-21T00:40:54;94667.59;;;20.46;79.02
41234;BME280;26968;42.686;23.352;2022-08-21T00:43:23;94688.19;;;20.69;80.13
41234;BME280;26968;42.686;23.352;2022-08-21T00:45:50;94651.38;;;20.42;79.08
41234;BME280;26968;42.686;23.352;2022-08-21T00:48:15;94667.59;;;20.61;78.60
41234;BME280;26968;42.686;23.352;2022-08-21T00:51:13;94710.53;;;20.86;78.76
41234;BME280;26968;42.686;23.352;2022-08-21T00:53:42;94705.66;;;20.75;78.75
41234;BME280;26968;42.686;23.352;2022-08-21T00:56:10;94713.66;;;20.88;79.00
41234;BME280;26968;42.686;23.352;2022-08-21T00:58:37;94481.38;;;19.34;77.60
41234;BME280;26968;42.686;23.352;2022-08-21T01:01:05;94476.94;;;19.25;76.66
41234;BME280;26968;42.686;23.352;2022-08-21T01:03:32;94427.69;;;19.06;78.58
41234;BME280;26968;42.686;23.352;2022-08-21T01:05:57;94698.19;;;20.85;77.89
41234;BME280;26968;42.686;23.352;2022-08-21T01:08:23;94607.31;;;20.19;77.78
41234;BME280;26968;42.686;23.352;2022-08-21T01:10:50;94606.44;;;20.30;78.08
41234;BME280;26968;42.686;23.352;2022-08-21T01:13:18;94696.44;;;20.92;78.68
41234;BME280;26968;42.686;23.352;2022-08-21T01:15:46;94601.03;;;20.30;78.84
41234;BME280;26968;42.686;23.352;2022-08-21T01:18:14;94600.88;;;20.23;79.01
41234;BME280;26968;42.686;23.352;2022-08-21T01:20:44;94687.22;;;20.93;79.30
41234;BME280;26968;42.686;23.352;2022-08-21T01:23:11;94646.06;;;20.61;78.42
41234;BME280;26968;42.686;23.352;2022-08-21T01:25:37;94669.66;;;20.84;78.53
41234;BME280;26968;42.686;23.352;2022-08-21T01:28:13;94576.56;;;20.20;78.10
41234;BME280;26968;42.686;23.352;2022-08-21T01:30:42;94658.50;;;20.66;78.36
41234;BME280;26968;42.686;23.352;2022-08-21T01:33:08;94686.09;;;20.94;78.08
41234;BME280;26968;42.686;23.352;2022-08-21T01:35:34;94636.69;;;20.55;79.16
41234;BME280;26968;42.686;23.352;2022-08-21T01:38:00;94687.41;;;20.85;79.52
41234;BME280;26968;42.686;23.352;2022-08-21T01:40:26;94484.97;;;19.53;79.16
41234;BME280;26968;42.686;23.352;2022-08-21T01:42:51;94625.66;;;20.29;78.68
41234;BME280;26968;42.686;23.352;2022-08-21T01:45:18;94639.03;;;20.41;79.20
41234;BME280;26968;42.686;23.352;2022-08-21T01:47:44;94693.56;;;20.85;79.33
41234;BME280;26968;42.686;23.352;2022-08-21T01:50:13;94623.50;;;20.34;80.97
41234;BME280;26968;42.686;23.352;2022-08-21T01:52:40;94668.91;;;20.67;80.84
41234;BME280;26968;42.686;23.352;2022-08-21T01:55:07;94689.41;;;20.88;80.53
41234;BME280;26968;42.686;23.352;2022-08-21T01:57:33;94682.19;;;20.76;80.32
41234;BME280;26968;42.686;23.352;2022-08-21T01:59:59;94653.97;;;20.54;80.26
41234;BME280;26968;42.686;23.352;2022-08-21T02:02:25;94667.25;;;20.63;80.40
41234;BME280;26968;42.686;23.352;2022-08-21T02:04:50;94653.88;;;20.66;80.77
41234;BME280;26968;42.686;23.352;2022-08-21T02:07:16;94693.50;;;20.97;79.92
41234;BME280;26968;42.686;23.352;2022-08-21T02:09:42;94639.22;;;20.48;79.66
41234;BME280;26968;42.686;23.352;2022-08-21T02:12:09;94687.84;;;20.87;79.49
41234;BME280;26968;42.686;23.352;2022-08-21T02:14:35;94639.53;;;20.62;80.70
41234;BME280;26968;42.686;23.352;2022-08-21T02:17:01;94610.34;;;20.33;80.90
41234;BME280;26968;42.686;23.352;2022-08-21T02:19:27;94595.78;;;20.34;80.26
41234;BME280;26968;42.686;23.352;2022-08-21T02:21:52;94669.00;;;20.71;80.07
41234;BME280;26968;42.686;23.352;2022-08-21T02:24:18;94596.22;;;20.36;79.70
41234;BME280;26968;42.686;23.352;2022-08-21T02:26:43;94656.75;;;20.73;80.08
41234;BME280;26968;42.686;23.352;2022-08-21T02:29:09;94685.06;;;20.83;78.96
41234;BME280;26968;42.686;23.352;2022-08-21T02:31:34;94614.47;;;20.42;78.75
41234;BME280;26968;42.686;23.352;2022-08-21T02:34:00;94674.19;;;20.79;78.93
41234;BME280;26968;42.686;23.352;2022-08-21T02:36:25;94666.31;;;20.71;78.85
41234;BME280;26968;42.686;23.352;2022-08-21T02:38:51;94628.78;;;20.47;79.20
41234;BME280;26968;42.686;23.352;2022-08-21T02:41:20;94710.50;;;21.01;79.08
41234;BME280;26968;42.686;23.352;2022-08-21T02:43:45;94443.63;;;19.30;79.50
41234;BME280;26968;42.686;23.352;2022-08-21T02:46:14;94713.03;;;20.94;79.80
41234;BME280;26968;42.686;23.352;2022-08-21T02:48:40;94710.25;;;20.91;79.01
41234;BME280;26968;42.686;23.352;2022-08-21T02:51:12;94710.00;;;20.96;78.77
41234;BME280;26968;42.686;23.352;2022-08-21T02:53:38;94633.47;;;20.50;79.53
41234;BME280;26968;42.686;23.352;2022-08-21T02:56:10;94708.34;;;20.91;79.67
41234;BME280;26968;42.686;23.352;2022-08-21T02:58:40;94704.28;;;20.97;78.92
41234;BME280;26968;42.686;23.352;2022-08-21T03:01:07;94701.31;;;20.87;79.02
41234;BME280;26968;42.686;23.352;2022-08-21T03:03:38;94677.06;;;20.71;79.56
41234;BME280;26968;42.686;23.352;2022-08-21T03:06:05;94712.88;;;20.87;79.95
41234;BME280;26968;42.686;23.352;2022-08-21T03:08:31;94669.28;;;20.50;80.03
41234;BME280;26968;42.686;23.352;2022-08-21T03:10:56;94695.16;;;20.70;79.34
41234;BME280;26968;42.686;23.352;2022-08-21T03:13:22;94715.31;;;20.92;79.34
41234;BME280;26968;42.686;23.352;2022-08-21T03:15:49;94718.28;;;20.87;80.27
41234;BME280;26968;42.686;23.352;2022-08-21T03:18:15;94714.34;;;20.85;79.78
41234;BME280;26968;42.686;23.352;2022-08-21T03:20:41;94714.44;;;20.88;80.73
41234;BME280;26968;42.686;23.352;2022-08-21T03:23:07;94693.59;;;20.69;79.92
41234;BME280;26968;42.686;23.352;2022-08-21T03:25:34;94506.84;;;19.52;78.78
41234;BME280;26968;42.686;23.352;2022-08-21T03:28:02;94663.28;;;20.41;78.13
41234;BME280;26968;42.686;23.352;2022-08-21T03:30:28;94723.41;;;20.76;79.73
41234;BME280;26968;42.686;23.352;2022-08-21T03:32:53;94621.72;;;20.11;78.71
41234;BME280;26968;42.686;23.352;2022-08-21T03:35:19;94522.41;;;19.46;78.88
41234;BME280;26968;42.686;23.352;2022-08-21T03:37:45;94720.81;;;20.80;78.18
41234;BME280;26968;42.686;23.352;2022-08-21T03:40:13;94718.53;;;20.82;78.04
41234;BME280;26968;42.686;23.352;2022-08-21T03:42:39;94615.91;;;20.24;77.79
41234;BME280;26968;42.686;23.352;2022-08-21T03:45:06;94564.50;;;19.82;78.08
41234;BME280;26968;42.686;23.352;2022-08-21T03:47:31;94632.75;;;20.21;77.86
41234;BME280;26968;42.686;23.352;2022-08-21T03:49:57;94634.41;;;20.10;77.82
41234;BME280;26968;42.686;23.352;2022-08-21T03:52:22;94606.16;;;19.88;78.28
41234;BME280;26968;42.686;23.352;2022-08-21T03:54:48;94681.63;;;20.35;79.71
41234;BME280;26968;42.686;23.352;2022-08-21T03:57:15;94654.38;;;20.09;80.38
41234;BME280;26968;42.686;23.352;2022-08-21T03:59:40;94682.59;;;20.15;79.75
41234;BME280;26968;42.686;23.352;2022-08-21T04:02:08;94620.47;;;19.49;80.30
41234;BME280;26968;42.686;23.352;2022-08-21T04:04:34;94646.59;;;19.92;80.29
41234;BME280;26968;42.686;23.352;2022-08-21T04:06:59;94694.09;;;20.28;80.27
41234;BME280;26968;42.686;23.352;2022-08-21T04:09:25;94619.00;;;19.79;80.92
41234;BME280;26968;42.686;23.352;2022-08-21T04:11:51;94649.41;;;19.95;80.06
41234;BME280;26968;42.686;23.352;2022-08-21T04:14:17;94725.84;;;20.50;79.78
41234;BME280;26968;42.686;23.352;2022-08-21T04:16:43;94684.44;;;20.27;79.27
41234;BME280;26968;42.686;23.352;2022-08-21T04:19:10;94603.78;;;19.71;79.26
41234;BME280;26968;42.686;23.352;2022-08-21T04:21:37;94704.78;;;20.40;79.68
41234;BME280;26968;42.686;23.352;2022-08-21T04:24:04;94593.53;;;19.61;79.03
41234;BME280;26968;42.686;23.352;2022-08-21T04:26:29;94566.34;;;19.50;78.96
41234;BME280;26968;42.686;23.352;2022-08-21T04:28:56;94695.88;;;20.36;78.35
41234;BME280;26968;42.686;23.352;2022-08-21T04:31:23;94628.22;;;19.94;78.91
41234;BME280;26968;42.686;23.352;2022-08-21T04:33:48;94672.78;;;20.23;78.90
41234;BME280;26968;42.686;23.352;2022-08-21T04:36:14;94697.19;;;20.30;79.82
41234;BME280;26968;42.686;23.352;2022-08-21T04:38:39;94674.44;;;20.27;78.92
41234;BME280;26968;42.686;23.352;2022-08-21T04:41:05;94638.38;;;20.00;80.02
41234;BME280;26968;42.686;23.352;2022-08-21T04:43:31;94709.56;;;20.47;79.36
41234;BME280;26968;42.686;23.352;2022-08-21T04:45:57;94657.22;;;20.16;79.04
41234;BME280;26968;42.686;23.352;2022-08-21T04:48:23;94647.31;;;19.89;79.26
41234;BME280;26968;42.686;23.352;2022-08-21T04:53:45;94726.47;;;20.59;78.69
41234;BME280;26968;42.686;23.352;2022-08-21T04:56:30;94678.94;;;20.08;80.00
41234;BME280;26968;42.686;23.352;2022-08-21T04:59:00;94725.84;;;20.50;79.29
41234;BME280;26968;42.686;23.352;2022-08-21T05:01:29;94504.44;;;18.91;79.35
41234;BME280;26968;42.686;23.352;2022-08-21T05:03:58;94709.69;;;20.50;79.47
41234;BME280;26968;42.686;23.352;2022-08-21T05:06:25;94734.97;;;20.61;79.09
41234;BME280;26968;42.686;23.352;2022-08-21T05:08:54;94698.47;;;20.48;78.12
41234;BME280;26968;42.686;23.352;2022-08-21T05:11:21;94722.38;;;20.65;78.78
41234;BME280;26968;42.686;23.352;2022-08-21T05:13:48;94409.09;;;18.57;78.71
41234;BME280;26968;42.686;23.352;2022-08-21T05:16:13;94703.75;;;20.60;78.83
41234;BME280;26968;42.686;23.352;2022-08-21T05:18:41;94705.41;;;20.65;78.53
41234;BME280;26968;42.686;23.352;2022-08-21T05:21:06;94717.31;;;20.79;79.04
41234;BME280;26968;42.686;23.352;2022-08-21T05:23:32;94721.31;;;20.86;78.52
41234;BME280;26968;42.686;23.352;2022-08-21T05:25:57;94699.84;;;20.73;78.17
41234;BME280;26968;42.686;23.352;2022-08-21T05:28:23;94702.72;;;20.80;78.06
41234;BME280;26968;42.686;23.352;2022-08-21T05:30:49;94707.16;;;20.89;77.94
41234;BME280;26968;42.686;23.352;2022-08-21T05:33:14;94628.22;;;20.25;78.53
41234;BME280;26968;42.686;23.352;2022-08-21T05:35:40;94517.47;;;19.60;78.82
41234;BME280;26968;42.686;23.352;2022-08-21T05:38:07;94696.91;;;20.63;76.62
41234;BME280;26968;42.686;23.352;2022-08-21T05:40:33;94698.28;;;20.72;77.61
41234;BME280;26968;42.686;23.352;2022-08-21T05:42:58;94707.53;;;21.06;78.20
41234;BME280;26968;42.686;23.352;2022-08-21T05:45:32;94604.38;;;20.39;77.30
41234;BME280;26968;42.686;23.352;2022-08-21T05:48:05;94670.69;;;20.95;76.15
41234;BME280;26968;42.686;23.352;2022-08-21T05:50:31;94696.56;;;21.15;77.12
41234;BME280;26968;42.686;23.352;2022-08-21T05:52:56;94669.94;;;21.13;76.28
41234;BME280;26968;42.686;23.352;2022-08-21T05:55:22;94645.13;;;21.04;75.90
41234;BME280;26968;42.686;23.352;2022-08-21T05:57:47;94670.91;;;21.21;75.10
41234;BME280;26968;42.686;23.352;2022-08-21T06:00:13;94615.91;;;20.91;75.38
41234;BME280;26968;42.686;23.352;2022-08-21T06:02:40;94695.56;;;21.39;74.02
41234;BME280;26968;42.686;23.352;2022-08-21T06:05:06;94585.44;;;20.52;74.61
41234;BME280;26968;42.686;23.352;2022-08-21T06:07:31;94661.50;;;21.15;74.21
41234;BME280;26968;42.686;23.352;2022-08-21T06:09:57;94560.91;;;20.57;73.56
41234;BME280;26968;42.686;23.352;2022-08-21T06:12:23;94694.31;;;21.52;73.87
41234;BME280;26968;42.686;23.352;2022-08-21T06:14:48;94713.03;;;21.45;72.67
41234;BME280;26968;42.686;23.352;2022-08-21T06:17:15;94674.34;;;21.37;73.85
41234;BME280;26968;42.686;23.352;2022-08-21T06:19:41;94679.81;;;21.41;72.74
41234;BME280;26968;42.686;23.352;2022-08-21T06:22:06;94662.81;;;20.86;73.17
41234;BME280;26968;42.686;23.352;2022-08-21T06:24:32;94700.50;;;21.02;74.13
41234;BME280;26968;42.686;23.352;2022-08-21T06:26:58;94705.91;;;21.02;75.08
41234;BME280;26968;42.686;23.352;2022-08-21T06:29:28;94628.09;;;20.50;74.00
41234;BME280;26968;42.686;23.352;2022-08-21T06:31:54;94701.78;;;21.08;74.65
41234;BME280;26968;42.686;23.352;2022-08-21T06:34:19;94665.75;;;20.97;73.88
41234;BME280;26968;42.686;23.352;2022-08-21T06:36:45;94685.41;;;21.32;73.77
41234;BME280;26968;42.686;23.352;2022-08-21T06:39:10;94616.75;;;20.75;72.54
41234;BME280;26968;42.686;23.352;2022-08-21T06:41:36;94598.63;;;20.41;73.38
41234;BME280;26968;42.686;23.352;2022-08-21T06:44:01;94708.25;;;21.19;73.11
41234;BME280;26968;42.686;23.352;2022-08-21T06:46:29;94599.91;;;20.31;73.83
41234;BME280;26968;42.686;23.352;2022-08-21T06:48:55;94708.84;;;21.12;73.73
41234;BME280;26968;42.686;23.352;2022-08-21T06:51:21;94693.78;;;21.27;72.96
41234;BME280;26968;42.686;23.352;2022-08-21T06:53:47;94682.84;;;21.20;72.54
41234;BME280;26968;42.686;23.352;2022-08-21T06:56:13;94650.06;;;21.18;70.87
41234;BME280;26968;42.686;23.352;2022-08-21T06:58:39;94646.09;;;21.31;71.29
41234;BME280;26968;42.686;23.352;2022-08-21T07:01:06;94718.66;;;21.55;70.21
41234;BME280;26968;42.686;23.352;2022-08-21T07:03:40;94674.78;;;21.04;71.12
41234;BME280;26968;42.686;23.352;2022-08-21T07:06:08;94525.91;;;20.25;70.66
41234;BME280;26968;42.686;23.352;2022-08-21T07:08:34;94676.84;;;21.11;69.69
41234;BME280;26968;42.686;23.352;2022-08-21T07:11:02;94704.25;;;21.48;71.07
41234;BME280;26968;42.686;23.352;2022-08-21T07:13:28;94594.88;;;20.96;70.27
41234;BME280;26968;42.686;23.352;2022-08-21T07:15:54;94718.41;;;21.80;69.37
41234;BME280;26968;42.686;23.352;2022-08-21T07:18:20;94670.50;;;21.38;69.63
41234;BME280;26968;42.686;23.352;2022-08-21T07:20:46;94717.13;;;21.74;70.63
41234;BME280;26968;42.686;23.352;2022-08-21T07:23:18;94689.13;;;21.63;68.74
41234;BME280;26968;42.686;23.352;2022-08-21T07:25:47;94683.22;;;21.38;69.08
41234;BME280;26968;42.686;23.352;2022-08-21T07:28:13;94657.59;;;21.28;69.95
41234;BME280;26968;42.686;23.352;2022-08-21T07:30:38;94676.53;;;21.32;69.84
41234;BME280;26968;42.686;23.352;2022-08-21T07:33:04;94539.84;;;20.62;69.56
41234;BME280;26968;42.686;23.352;2022-08-21T07:35:29;94619.13;;;21.31;68.96
41234;BME280;26968;42.686;23.352;2022-08-21T07:37:56;94694.03;;;21.95;68.42
41234;BME280;26968;42.686;23.352;2022-08-21T07:40:21;94415.19;;;20.27;66.86
41234;BME280;26968;42.686;23.352;2022-08-21T07:42:48;94649.84;;;21.84;67.52
41234;BME280;26968;42.686;23.352;2022-08-21T07:45:21;94688.84;;;22.06;66.67
41234;BME280;26968;42.686;23.352;2022-08-21T07:47:50;94643.16;;;21.98;66.43
41234;BME280;26968;42.686;23.352;2022-08-21T07:50:16;94618.09;;;21.78;66.05
41234;BME280;26968;42.686;23.352;2022-08-21T07:52:42;94630.72;;;22.12;65.52
41234;BME280;26968;42.686;23.352;2022-08-21T07:55:14;94687.13;;;22.17;67.68
41234;BME280;26968;42.686;23.352;2022-08-21T07:57:41;94554.84;;;21.33;67.22
41234;BME280;26968;42.686;23.352;2022-08-21T08:00:10;94663.13;;;22.12;67.03
41234;BME280;26968;42.686;23.352;2022-08-21T08:02:36;94647.88;;;22.01;66.11
41234;BME280;26968;42.686;23.352;2022-08-21T08:05:08;94615.41;;;21.78;66.61
41234;BME280;26968;42.686;23.352;2022-08-21T08:07:34;94585.03;;;21.62;66.25
41234;BME280;26968;42.686;23.352;2022-08-21T08:10:00;94655.06;;;22.16;66.32
41234;BME280;26968;42.686;23.352;2022-08-21T08:12:26;94659.53;;;22.27;65.52
41234;BME280;26968;42.686;23.352;2022-08-21T08:14:59;94540.72;;;21.21;65.85
41234;BME280;26968;42.686;23.352;2022-08-21T08:17:26;94691.91;;;22.47;65.75
41234;BME280;26968;42.686;23.352;2022-08-21T08:19:52;94685.72;;;22.46;65.90
41234;BME280;26968;42.686;23.352;2022-08-21T08:22:20;94649.13;;;22.29;65.43
41234;BME280;26968;42.686;23.352;2022-08-21T08:24:47;94489.25;;;21.29;65.72
41234;BME280;26968;42.686;23.352;2022-08-21T08:27:14;94654.31;;;22.38;65.97
41234;BME280;26968;42.686;23.352;2022-08-21T08:29:40;94640.75;;;22.35;64.86
41234;BME280;26968;42.686;23.352;2022-08-21T08:32:06;94684.50;;;22.66;65.30
41234;BME280;26968;42.686;23.352;2022-08-21T08:34:33;94698.22;;;22.77;64.41
41234;BME280;26968;42.686;23.352;2022-08-21T08:36:59;94640.88;;;22.42;65.26
41234;BME280;26968;42.686;23.352;2022-08-21T08:39:24;94674.47;;;22.44;65.55
41234;BME280;26968;42.686;23.352;2022-08-21T08:41:55;94618.16;;;21.59;66.96
41234;BME280;26968;42.686;23.352;2022-08-21T08:44:22;94658.22;;;21.99;66.04
41234;BME280;26968;42.686;23.352;2022-08-21T08:46:50;94690.75;;;22.48;65.64
41234;BME280;26968;42.686;23.352;2022-08-21T08:49:21;94659.41;;;22.43;65.05
41234;BME280;26968;42.686;23.352;2022-08-21T08:52:11;94650.03;;;22.60;64.24
41234;BME280;26968;42.686;23.352;2022-08-21T08:54:48;94599.03;;;22.58;63.32
41234;BME280;26968;42.686;23.352;2022-08-21T08:57:20;94597.53;;;22.12;63.66
41234;BME280;26968;42.686;23.352;2022-08-21T08:59:50;94586.63;;;22.54;63.26
41234;BME280;26968;42.686;23.352;2022-08-21T09:02:18;94675.28;;;23.20;62.20
41234;BME280;26968;42.686;23.352;2022-08-21T09:04:47;94567.09;;;22.90;61.23
41234;BME280;26968;42.686;23.352;2022-08-21T09:10:19;94612.94;;;23.39;60.96
41234;BME280;26968;42.686;23.352;2022-08-21T09:13:04;94668.13;;;23.35;60.64
41234;BME280;26968;42.686;23.352;2022-08-21T09:16:05;94658.06;;;23.32;61.03
41234;BME280;26968;42.686;23.352;2022-08-21T09:18:46;94649.97;;;23.62;60.80
41234;BME280;26968;42.686;23.352;2022-08-21T09:27:14;94609.44;;;24.06;59.60
41234;BME280;26968;42.686;23.352;2022-08-21T09:29:45;94644.88;;;24.23;58.83
41234;BME280;26968;42.686;23.352;2022-08-21T09:32:25;94368.88;;;22.83;58.70
41234;BME280;26968;42.686;23.352;2022-08-21T09:35:11;94642.44;;;24.55;56.85
41234;BME280;26968;42.686;23.352;2022-08-21T09:37:59;94613.78;;;24.54;56.63
41234;BME280;26968;42.686;23.352;2022-08-21T09:45:37;94613.97;;;24.79;56.60
41234;BME280;26968;42.686;23.352;2022-08-21T09:48:21;94619.59;;;25.08;56.75
41234;BME280;26968;42.686;23.352;2022-08-21T09:50:47;94515.22;;;24.29;57.09
41234;BME280;26968;42.686;23.352;2022-08-21T09:53:20;94628.63;;;25.33;57.13
41234;BME280;26968;42.686;23.352;2022-08-21T09:55:58;94640.72;;;25.50;57.00
41234;BME280;26968;42.686;23.352;2022-08-21T09:58:47;94637.63;;;25.48;55.20
41234;BME280;26968;42.686;23.352;2022-08-21T10:01:22;94541.13;;;24.78;55.04
41234;BME280;26968;42.686;23.352;2022-08-21T10:03:48;94628.25;;;25.31;55.85
41234;BME280;26968;42.686;23.352;2022-08-21T10:06:27;94625.84;;;25.15;57.20
41234;BME280;26968;42.686;23.352;2022-08-21T10:09:09;94621.59;;;25.21;55.58
41234;BME280;26968;42.686;23.352;2022-08-21T10:11:35;94601.19;;;24.83;55.87
41234;BME280;26968;42.686;23.352;2022-08-21T10:17:44;94596.66;;;24.98;57.96
41234;BME280;26968;42.686;23.352;2022-08-21T10:20:11;94606.41;;;25.06;58.19
41234;BME280;26968;42.686;23.352;2022-08-21T10:25:26;94608.44;;;25.27;57.59
41234;BME280;26968;42.686;23.352;2022-08-21T10:31:14;94362.84;;;23.84;56.49
41234;BME280;26968;42.686;23.352;2022-08-21T10:33:46;94587.75;;;25.84;55.45
41234;BME280;26968;42.686;23.352;2022-08-21T10:36:25;94603.69;;;25.93;55.43
41234;BME280;26968;42.686;23.352;2022-08-21T10:39:03;94600.66;;;26.30;54.79
41234;BME280;26968;42.686;23.352;2022-08-21T10:47:05;94540.75;;;27.04;50.91
41234;BME280;26968;42.686;23.352;2022-08-21T10:52:26;94582.59;;;28.29;48.65
41234;BME280;26968;42.686;23.352;2022-08-21T10:55:00;94587.16;;;28.91;47.78
41234;BME280;26968;42.686;23.352;2022-08-21T11:03:14;94525.00;;;30.01;45.60
41234;BME280;26968;42.686;23.352;2022-08-21T11:05:53;94513.03;;;30.41;44.40
41234;BME280;26968;42.686;23.352;2022-08-21T11:08:27;94561.63;;;31.03;44.16
41234;BME280;26968;42.686;23.352;2022-08-21T11:11:03;94525.22;;;31.26;41.72
41234;BME280;26968;42.686;23.352;2022-08-21T11:13:55;94551.63;;;31.36;40.32
41234;BME280;26968;42.686;23.352;2022-08-21T11:16:40;94551.63;;;31.36;40.32
41234;BME280;26968;42.686;23.352;2022-08-21T11:19:13;94531.25;;;32.29;39.92
41234;BME280;26968;42.686;23.352;2022-08-21T11:21:48;94543.84;;;32.59;37.99
41234;BME280;26968;42.686;23.352;2022-08-21T11:24:34;94540.41;;;32.87;38.59
41234;BME280;26968;42.686;23.352;2022-08-21T11:27:38;94558.78;;;32.74;37.62
41234;BME280;26968;42.686;23.352;2022-08-21T11:30:07;94521.88;;;32.59;38.21
41234;BME280;26968;42.686;23.352;2022-08-21T11:35:46;94531.44;;;32.71;37.64
41234;BME280;26968;42.686;23.352;2022-08-21T11:43:42;94537.84;;;32.32;38.79
41234;BME280;26968;42.686;23.352;2022-08-21T11:49:21;94536.56;;;32.52;38.41
41234;BME280;26968;42.686;23.352;2022-08-21T11:52:08;94532.72;;;31.98;38.59
41234;BME280;26968;42.686;23.352;2022-08-21T12:02:46;94482.06;;;30.91;38.62
41234;BME280;26968;42.686;23.352;2022-08-21T12:06:27;94492.41;;;30.60;39.58
41234;BME280;26968;42.686;23.352;2022-08-21T12:08:44;94386.97;;;29.32;40.87
41234;BME280;26968;42.686;23.352;2022-08-21T12:14:13;94507.03;;;30.00;40.63
41234;BME280;26968;42.686;23.352;2022-08-21T12:16:49;94501.75;;;29.59;42.68
41234;BME280;26968;42.686;23.352;2022-08-21T12:21:53;94467.78;;;28.99;42.83
41234;BME280;26968;42.686;23.352;2022-08-21T12:24:36;94522.13;;;29.20;43.15
41234;BME280;26968;42.686;23.352;2022-08-21T12:29:56;94496.41;;;28.84;42.89
41234;BME280;26968;42.686;23.352;2022-08-21T12:32:29;94477.22;;;28.50;43.98
41234;BME280;26968;42.686;23.352;2022-08-21T12:35:02;94496.38;;;28.42;44.72
41234;BME280;26968;42.686;23.352;2022-08-21T12:37:47;94513.72;;;28.18;45.53
41234;BME280;26968;42.686;23.352;2022-08-21T12:40:22;94436.59;;;27.70;46.20
41234;BME280;26968;42.686;23.352;2022-08-21T12:42:51;94458.00;;;27.71;46.07
41234;BME280;26968;42.686;23.352;2022-08-21T12:46:03;94511.03;;;28.08;46.01
41234;BME280;26968;42.686;23.352;2022-08-21T12:48:12;94510.63;;;28.16;46.01
41234;BME280;26968;42.686;23.352;2022-08-21T12:50:58;94500.69;;;27.85;46.82
41234;BME280;26968;42.686;23.352;2022-08-21T12:53:36;94452.25;;;27.51;46.99
41234;BME280;26968;42.686;23.352;2022-08-21T12:56:09;94498.50;;;27.65;47.20
41234;BME280;26968;42.686;23.352;2022-08-21T12:58:35;94475.22;;;27.50;46.71
41234;BME280;26968;42.686;23.352;2022-08-21T13:01:04;94427.56;;;27.17;47.01
41234;BME280;26968;42.686;23.352;2022-08-21T13:03:35;94459.44;;;27.20;47.44
41234;BME280;26968;42.686;23.352;2022-08-21T13:06:03;94488.84;;;27.50;46.78
41234;BME280;26968;42.686;23.352;2022-08-21T13:08:29;94488.53;;;27.38;47.77
41234;BME280;26968;42.686;23.352;2022-08-21T13:11:05;94499.78;;;27.40;47.65
41234;BME280;26968;42.686;23.352;2022-08-21T13:13:32;94467.28;;;27.04;47.62
41234;BME280;26968;42.686;23.352;2022-08-21T13:16:00;94506.84;;;27.30;47.56
41234;BME280;26968;42.686;23.352;2022-08-21T13:18:29;94381.28;;;26.16;48.67
41234;BME280;26968;42.686;23.352;2022-08-21T13:21:29;94506.16;;;27.05;48.28
41234;BME280;26968;42.686;23.352;2022-08-21T13:24:11;94468.91;;;26.84;48.65
41234;BME280;26968;42.686;23.352;2022-08-21T13:26:37;94477.84;;;26.81;49.69
41234;BME280;26968;42.686;23.352;2022-08-21T13:29:09;94459.19;;;26.79;50.15
41234;BME280;26968;42.686;23.352;2022-08-21T13:31:37;94415.00;;;26.40;51.59
41234;BME280;26968;42.686;23.352;2022-08-21T13:34:05;94467.69;;;26.96;51.20
41234;BME280;26968;42.686;23.352;2022-08-21T13:36:35;94451.69;;;27.08;50.76
41234;BME280;26968;42.686;23.352;2022-08-21T13:39:09;94413.28;;;26.96;51.66
41234;BME280;26968;42.686;23.352;2022-08-21T13:41:38;94462.47;;;27.37;51.29
41234;BME280;26968;42.686;23.352;2022-08-21T13:44:13;94355.50;;;26.63;51.19
41234;BME280;26968;42.686;23.352;2022-08-21T13:46:40;94450.03;;;27.36;49.89
41234;BME280;26968;42.686;23.352;2022-08-21T13:49:07;94425.97;;;27.27;50.54
41234;BME280;26968;42.686;23.352;2022-08-21T13:51:34;94488.00;;;27.64;50.33
41234;BME280;26968;42.686;23.352;2022-08-21T13:54:01;94420.63;;;27.02;50.43
41234;BME280;26968;42.686;23.352;2022-08-21T13:56:28;94486.50;;;27.49;49.85
41234;BME280;26968;42.686;23.352;2022-08-21T13:58:55;94439.25;;;27.14;49.74
41234;BME280;26968;42.686;23.352;2022-08-21T14:01:46;94381.97;;;26.52;51.72
41234;BME280;26968;42.686;23.352;2022-08-21T14:04:22;94406.69;;;26.97;51.73
41234;BME280;26968;42.686;23.352;2022-08-21T14:06:49;94349.19;;;26.84;50.62
41234;BME280;26968;42.686;23.352;2022-08-21T14:09:33;94435.25;;;27.37;50.75
41234;BME280;26968;42.686;23.352;2022-08-21T14:12:02;94414.28;;;27.26;49.99